sensor_id;sensor_type;location;lat;lon;timestamp;P1;durP1;ratioP1;P2;durP2;ratioP2
24425;SDS011;12611;44.446;26.000;2022-08-14T00:02:15;9.90;;;5.95;;
24425;SDS011;12611;44.446;26.000;2022-08-14T00:04:44;12.45;;;5.88;;
24425;SDS011;12611;44.446;26.000;2022-08-14T00:07:12;11.45;;;6.00;;
24425;SDS011;12611;44.446;26.000;2022-08-14T00:09:41;9.23;;;5.10;;
24425;SDS011;12611;44.446;26.000;2022-08-14T00:12:30;11.70;;;5.78;;
24425;SDS011;12611;44.446;26.000;2022-08-14T00:15:08;11.77;;;6.22;;
24425;SDS011;12611;44.446;26.000;2022-08-14T00:17:40;9.00;;;4.63;;
24425;SDS011;12611;44.446;26.000;2022-08-14T00:20:19;8.15;;;4.75;;
24425;SDS011;12611;44.446;26.000;2022-08-14T00:22:56;10.82;;;4.95;;
24425;SDS011;12611;44.446;26.000;2022-08-14T00:25:38;9.13;;;5.20;;
24425;SDS011;12611;44.446;26.000;2022-08-14T00:28:08;14.85;;;5.15;;
24425;SDS011;12611;44.446;26.000;2022-08-14T00:30:42;9.93;;;4.93;;
24425;SDS011;12611;44.446;26.000;2022-08-14T00:33:10;10.90;;;5.63;;
24425;SDS011;12611;44.446;26.000;2022-08-14T00:35:41;9.82;;;5.20;;
24425;SDS011;12611;44.446;26.000;2022-08-14T00:38:31;8.68;;;4.78;;
24425;SDS011;12611;44.446;26.000;2022-08-14T00:41:00;10.93;;;5.75;;
24425;SDS011;12611;44.446;26.000;2022-08-14T00:43:30;8.35;;;4.70;;
24425;SDS011;12611;44.446;26.000;2022-08-14T00:46:02;10.05;;;5.10;;
24425;SDS011;12611;44.446;26.000;2022-08-14T00:48:33;8.43;;;5.40;;
24425;SDS011;12611;44.446;26.000;2022-08-14T00:51:04;10.73;;;4.22;;
24425;SDS011;12611;44.446;26.000;2022-08-14T00:53:34;9.43;;;4.75;;
24425;SDS011;12611;44.446;26.000;2022-08-14T00:56:08;8.52;;;4.53;;
24425;SDS011;12611;44.446;26.000;2022-08-14T00:58:40;9.00;;;4.75;;
24425;SDS011;12611;44.446;26.000;2022-08-14T01:01:15;12.43;;;4.53;;
24425;SDS011;12611;44.446;26.000;2022-08-14T01:03:44;11.85;;;4.88;;
24425;SDS011;12611;44.446;26.000;2022-08-14T01:06:18;10.85;;;4.68;;
24425;SDS011;12611;44.446;26.000;2022-08-14T01:08:47;10.00;;;5.07;;
24425;SDS011;12611;44.446;26.000;2022-08-14T01:11:25;8.27;;;4.45;;
24425;SDS011;12611;44.446;26.000;2022-08-14T01:14:02;10.10;;;4.60;;
24425;SDS011;12611;44.446;26.000;2022-08-14T01:16:52;9.70;;;4.90;;
24425;SDS011;12611;44.446;26.000;2022-08-14T01:19:21;10.23;;;4.80;;
24425;SDS011;12611;44.446;26.000;2022-08-14T01:22:10;8.70;;;4.20;;
24425;SDS011;12611;44.446;26.000;2022-08-14T01:24:44;9.05;;;5.07;;
24425;SDS011;12611;44.446;26.000;2022-08-14T01:27:17;7.13;;;4.20;;
24425;SDS011;12611;44.446;26.000;2022-08-14T01:29:51;7.28;;;4.43;;
24425;SDS011;12611;44.446;26.000;2022-08-14T01:32:28;8.60;;;4.05;;
24425;SDS011;12611;44.446;26.000;2022-08-14T01:35:07;7.63;;;3.90;;
24425;SDS011;12611;44.446;26.000;2022-08-14T01:37:48;7.93;;;4.57;;
24425;SDS011;12611;44.446;26.000;2022-08-14T01:40:22;9.57;;;4.15;;
24425;SDS011;12611;44.446;26.000;2022-08-14T01:43:07;7.72;;;4.38;;
24425;SDS011;12611;44.446;26.000;2022-08-14T01:45:47;7.55;;;4.30;;
24425;SDS011;12611;44.446;26.000;2022-08-14T01:48:31;9.65;;;4.90;;
24425;SDS011;12611;44.446;26.000;2022-08-14T01:51:03;7.55;;;4.40;;
24425;SDS011;12611;44.446;26.000;2022-08-14T01:53:47;8.32;;;4.10;;
24425;SDS011;12611;44.446;26.000;2022-08-14T01:56:21;9.10;;;4.63;;
24425;SDS011;12611;44.446;26.000;2022-08-14T01:59:05;7.60;;;3.95;;
24425;SDS011;12611;44.446;26.000;2022-08-14T02:01:35;9.90;;;4.53;;
24425;SDS011;12611;44.446;26.000;2022-08-14T02:04:16;10.57;;;4.55;;
24425;SDS011;12611;44.446;26.000;2022-08-14T02:07:07;9.35;;;5.32;;
24425;SDS011;12611;44.446;26.000;2022-08-14T02:09:42;8.73;;;4.70;;
24425;SDS011;12611;44.446;26.000;2022-08-14T02:12:21;10.27;;;5.10;;
24425;SDS011;12611;44.446;26.000;2022-08-14T02:14:54;10.07;;;4.90;;
24425;SDS011;12611;44.446;26.000;2022-08-14T02:17:26;11.73;;;5.53;;
24425;SDS011;12611;44.446;26.000;2022-08-14T02:19:56;12.40;;;5.55;;
24425;SDS011;12611;44.446;26.000;2022-08-14T02:22:28;10.40;;;5.18;;
24425;SDS011;12611;44.446;26.000;2022-08-14T02:25:00;13.32;;;5.82;;
24425;SDS011;12611;44.446;26.000;2022-08-14T02:27:29;10.23;;;5.78;;
24425;SDS011;12611;44.446;26.000;2022-08-14T02:30:17;11.18;;;5.10;;
24425;SDS011;12611;44.446;26.000;2022-08-14T02:32:46;9.27;;;4.78;;
24425;SDS011;12611;44.446;26.000;2022-08-14T02:35:16;8.43;;;4.82;;
24425;SDS011;12611;44.446;26.000;2022-08-14T02:37:47;12.43;;;5.45;;
24425;SDS011;12611;44.446;26.000;2022-08-14T02:40:18;8.07;;;4.82;;
24425;SDS011;12611;44.446;26.000;2022-08-14T02:42:59;8.60;;;5.30;;
24425;SDS011;12611;44.446;26.000;2022-08-14T02:45:31;9.02;;;4.32;;
24425;SDS011;12611;44.446;26.000;2022-08-14T02:48:10;12.45;;;5.47;;
24425;SDS011;12611;44.446;26.000;2022-08-14T02:51:00;10.35;;;5.25;;
24425;SDS011;12611;44.446;26.000;2022-08-14T02:53:30;9.75;;;5.22;;
24425;SDS011;12611;44.446;26.000;2022-08-14T02:56:04;8.55;;;5.28;;
24425;SDS011;12611;44.446;26.000;2022-08-14T02:58:54;8.98;;;5.45;;
24425;SDS011;12611;44.446;26.000;2022-08-14T03:01:31;12.18;;;5.72;;
24425;SDS011;12611;44.446;26.000;2022-08-14T03:04:15;9.82;;;5.50;;
24425;SDS011;12611;44.446;26.000;2022-08-14T03:06:46;10.98;;;5.70;;
24425;SDS011;12611;44.446;26.000;2022-08-14T03:09:31;10.73;;;5.70;;
24425;SDS011;12611;44.446;26.000;2022-08-14T03:12:21;9.95;;;5.30;;
24425;SDS011;12611;44.446;26.000;2022-08-14T03:14:57;10.07;;;5.60;;
24425;SDS011;12611;44.446;26.000;2022-08-14T03:17:25;8.23;;;5.18;;
24425;SDS011;12611;44.446;26.000;2022-08-14T03:19:57;9.27;;;5.53;;
24425;SDS011;12611;44.446;26.000;2022-08-14T03:22:26;9.85;;;5.88;;
24425;SDS011;12611;44.446;26.000;2022-08-14T03:24:55;10.15;;;5.65;;
24425;SDS011;12611;44.446;26.000;2022-08-14T03:27:25;9.63;;;6.00;;
24425;SDS011;12611;44.446;26.000;2022-08-14T03:30:16;11.65;;;5.85;;
24425;SDS011;12611;44.446;26.000;2022-08-14T03:32:48;10.43;;;5.57;;
24425;SDS011;12611;44.446;26.000;2022-08-14T03:35:21;11.48;;;5.57;;
24425;SDS011;12611;44.446;26.000;2022-08-14T03:38:06;9.50;;;5.22;;
24425;SDS011;12611;44.446;26.000;2022-08-14T03:40:55;11.18;;;6.07;;
24425;SDS011;12611;44.446;26.000;2022-08-14T03:43:25;11.00;;;5.70;;
24425;SDS011;12611;44.446;26.000;2022-08-14T03:45:58;12.68;;;6.05;;
24425;SDS011;12611;44.446;26.000;2022-08-14T03:48:35;9.77;;;6.07;;
24425;SDS011;12611;44.446;26.000;2022-08-14T03:51:06;11.48;;;6.10;;
24425;SDS011;12611;44.446;26.000;2022-08-14T03:53:37;10.82;;;5.40;;
24425;SDS011;12611;44.446;26.000;2022-08-14T03:56:10;12.25;;;6.05;;
24425;SDS011;12611;44.446;26.000;2022-08-14T03:58:50;10.25;;;6.00;;
24425;SDS011;12611;44.446;26.000;2022-08-14T04:01:23;11.85;;;6.40;;
24425;SDS011;12611;44.446;26.000;2022-08-14T04:04:07;10.73;;;6.28;;
24425;SDS011;12611;44.446;26.000;2022-08-14T04:06:36;9.65;;;6.00;;
24425;SDS011;12611;44.446;26.000;2022-08-14T04:09:13;10.98;;;5.43;;
24425;SDS011;12611;44.446;26.000;2022-08-14T04:11:42;9.95;;;6.05;;
24425;SDS011;12611;44.446;26.000;2022-08-14T04:14:13;11.93;;;6.25;;
24425;SDS011;12611;44.446;26.000;2022-08-14T04:16:41;10.00;;;6.30;;
24425;SDS011;12611;44.446;26.000;2022-08-14T04:19:12;12.13;;;7.07;;
24425;SDS011;12611;44.446;26.000;2022-08-14T04:21:42;9.68;;;5.70;;
24425;SDS011;12611;44.446;26.000;2022-08-14T04:24:29;12.57;;;6.80;;
24425;SDS011;12611;44.446;26.000;2022-08-14T04:27:04;10.23;;;5.95;;
24425;SDS011;12611;44.446;26.000;2022-08-14T04:29:36;11.35;;;5.47;;
24425;SDS011;12611;44.446;26.000;2022-08-14T04:32:08;10.80;;;6.20;;
24425;SDS011;12611;44.446;26.000;2022-08-14T04:34:57;13.15;;;6.57;;
24425;SDS011;12611;44.446;26.000;2022-08-14T04:37:32;9.90;;;5.55;;
24425;SDS011;12611;44.446;26.000;2022-08-14T04:40:19;11.40;;;6.13;;
24425;SDS011;12611;44.446;26.000;2022-08-14T04:43:06;13.60;;;6.38;;
24425;SDS011;12611;44.446;26.000;2022-08-14T04:46:07;10.38;;;6.65;;
24425;SDS011;12611;44.446;26.000;2022-08-14T04:48:56;10.60;;;5.78;;
24425;SDS011;12611;44.446;26.000;2022-08-14T04:51:26;12.38;;;6.55;;
24425;SDS011;12611;44.446;26.000;2022-08-14T04:54:12;9.57;;;5.82;;
24425;SDS011;12611;44.446;26.000;2022-08-14T04:56:42;10.85;;;6.28;;
24425;SDS011;12611;44.446;26.000;2022-08-14T04:59:11;11.55;;;6.15;;
24425;SDS011;12611;44.446;26.000;2022-08-14T05:01:41;12.60;;;6.22;;
24425;SDS011;12611;44.446;26.000;2022-08-14T05:04:17;9.35;;;6.53;;
24425;SDS011;12611;44.446;26.000;2022-08-14T05:06:47;12.10;;;6.95;;
24425;SDS011;12611;44.446;26.000;2022-08-14T05:09:20;9.57;;;6.05;;
24425;SDS011;12611;44.446;26.000;2022-08-14T05:11:49;17.60;;;7.18;;
24425;SDS011;12611;44.446;26.000;2022-08-14T05:14:19;11.98;;;6.43;;
24425;SDS011;12611;44.446;26.000;2022-08-14T05:17:11;11.02;;;6.78;;
24425;SDS011;12611;44.446;26.000;2022-08-14T05:19:39;12.43;;;6.78;;
24425;SDS011;12611;44.446;26.000;2022-08-14T05:22:28;11.98;;;6.50;;
24425;SDS011;12611;44.446;26.000;2022-08-14T05:24:56;13.63;;;6.85;;
24425;SDS011;12611;44.446;26.000;2022-08-14T05:27:25;12.85;;;6.80;;
24425;SDS011;12611;44.446;26.000;2022-08-14T05:29:58;14.05;;;6.43;;
24425;SDS011;12611;44.446;26.000;2022-08-14T05:32:37;13.93;;;6.85;;
24425;SDS011;12611;44.446;26.000;2022-08-14T05:35:07;12.32;;;7.25;;
24425;SDS011;12611;44.446;26.000;2022-08-14T05:37:40;15.15;;;7.13;;
24425;SDS011;12611;44.446;26.000;2022-08-14T05:40:20;13.63;;;7.57;;
24425;SDS011;12611;44.446;26.000;2022-08-14T05:42:50;13.98;;;7.95;;
24425;SDS011;12611;44.446;26.000;2022-08-14T05:45:18;13.07;;;7.38;;
24425;SDS011;12611;44.446;26.000;2022-08-14T05:47:49;12.63;;;7.38;;
24425;SDS011;12611;44.446;26.000;2022-08-14T05:50:17;14.93;;;7.22;;
24425;SDS011;12611;44.446;26.000;2022-08-14T05:52:48;17.42;;;7.35;;
24425;SDS011;12611;44.446;26.000;2022-08-14T05:55:18;13.10;;;7.63;;
24425;SDS011;12611;44.446;26.000;2022-08-14T05:57:51;15.15;;;7.85;;
24425;SDS011;12611;44.446;26.000;2022-08-14T06:00:26;14.23;;;7.53;;
24425;SDS011;12611;44.446;26.000;2022-08-14T06:03:06;12.88;;;7.43;;
24425;SDS011;12611;44.446;26.000;2022-08-14T06:05:40;14.25;;;7.35;;
24425;SDS011;12611;44.446;26.000;2022-08-14T06:08:13;16.27;;;8.25;;
24425;SDS011;12611;44.446;26.000;2022-08-14T06:11:02;13.27;;;8.05;;
24425;SDS011;12611;44.446;26.000;2022-08-14T06:13:33;13.63;;;7.93;;
24425;SDS011;12611;44.446;26.000;2022-08-14T06:16:10;16.40;;;8.07;;
24425;SDS011;12611;44.446;26.000;2022-08-14T06:18:45;17.00;;;8.52;;
24425;SDS011;12611;44.446;26.000;2022-08-14T06:21:18;14.80;;;7.78;;
24425;SDS011;12611;44.446;26.000;2022-08-14T06:23:48;21.38;;;9.70;;
24425;SDS011;12611;44.446;26.000;2022-08-14T06:26:17;15.77;;;8.30;;
24425;SDS011;12611;44.446;26.000;2022-08-14T06:28:47;15.85;;;9.18;;
24425;SDS011;12611;44.446;26.000;2022-08-14T06:31:17;16.60;;;9.30;;
24425;SDS011;12611;44.446;26.000;2022-08-14T06:33:49;20.27;;;8.60;;
24425;SDS011;12611;44.446;26.000;2022-08-14T06:36:38;16.58;;;8.50;;
24425;SDS011;12611;44.446;26.000;2022-08-14T06:39:07;13.35;;;8.45;;
24425;SDS011;12611;44.446;26.000;2022-08-14T06:41:36;22.55;;;8.82;;
24425;SDS011;12611;44.446;26.000;2022-08-14T06:44:24;16.73;;;9.07;;
24425;SDS011;12611;44.446;26.000;2022-08-14T06:46:58;16.67;;;9.43;;
24425;SDS011;12611;44.446;26.000;2022-08-14T06:49:31;15.77;;;8.48;;
24425;SDS011;12611;44.446;26.000;2022-08-14T06:52:09;16.10;;;8.48;;
24425;SDS011;12611;44.446;26.000;2022-08-14T06:54:41;17.50;;;9.20;;
24425;SDS011;12611;44.446;26.000;2022-08-14T06:57:10;17.33;;;9.75;;
24425;SDS011;12611;44.446;26.000;2022-08-14T06:59:39;17.35;;;9.13;;
24425;SDS011;12611;44.446;26.000;2022-08-14T07:02:09;13.43;;;8.65;;
24425;SDS011;12611;44.446;26.000;2022-08-14T07:04:57;17.50;;;9.68;;
24425;SDS011;12611;44.446;26.000;2022-08-14T07:07:49;17.95;;;9.40;;
24425;SDS011;12611;44.446;26.000;2022-08-14T07:10:18;16.88;;;9.45;;
24425;SDS011;12611;44.446;26.000;2022-08-14T07:12:51;16.08;;;8.57;;
24425;SDS011;12611;44.446;26.000;2022-08-14T07:15:30;14.85;;;9.35;;
24425;SDS011;12611;44.446;26.000;2022-08-14T07:18:08;16.05;;;9.30;;
24425;SDS011;12611;44.446;26.000;2022-08-14T07:20:39;15.45;;;7.50;;
24425;SDS011;12611;44.446;26.000;2022-08-14T07:23:10;8.05;;;4.70;;
24425;SDS011;12611;44.446;26.000;2022-08-14T07:25:46;10.80;;;5.50;;
24425;SDS011;12611;44.446;26.000;2022-08-14T07:28:18;9.57;;;5.20;;
24425;SDS011;12611;44.446;26.000;2022-08-14T07:30:49;7.05;;;4.28;;
24425;SDS011;12611;44.446;26.000;2022-08-14T07:33:22;9.18;;;4.40;;
24425;SDS011;12611;44.446;26.000;2022-08-14T07:35:58;10.35;;;4.22;;
24425;SDS011;12611;44.446;26.000;2022-08-14T07:38:48;7.80;;;3.67;;
24425;SDS011;12611;44.446;26.000;2022-08-14T07:41:17;8.77;;;4.10;;
24425;SDS011;12611;44.446;26.000;2022-08-14T07:43:47;8.20;;;3.30;;
24425;SDS011;12611;44.446;26.000;2022-08-14T07:46:23;10.13;;;3.05;;
24425;SDS011;12611;44.446;26.000;2022-08-14T07:48:54;9.05;;;3.03;;
24425;SDS011;12611;44.446;26.000;2022-08-14T07:51:24;10.63;;;3.05;;
24425;SDS011;12611;44.446;26.000;2022-08-14T07:54:03;5.47;;;2.42;;
24425;SDS011;12611;44.446;26.000;2022-08-14T07:56:37;3.05;;;1.80;;
24425;SDS011;12611;44.446;26.000;2022-08-14T07:59:15;4.35;;;1.98;;
24425;SDS011;12611;44.446;26.000;2022-08-14T08:02:07;9.13;;;2.20;;
24425;SDS011;12611;44.446;26.000;2022-08-14T08:04:45;6.13;;;1.73;;
24425;SDS011;12611;44.446;26.000;2022-08-14T08:07:21;3.75;;;1.80;;
24425;SDS011;12611;44.446;26.000;2022-08-14T08:09:56;3.20;;;1.40;;
24425;SDS011;12611;44.446;26.000;2022-08-14T08:12:27;6.07;;;1.60;;
24425;SDS011;12611;44.446;26.000;2022-08-14T08:14:58;7.45;;;1.80;;
24425;SDS011;12611;44.446;26.000;2022-08-14T08:17:33;5.07;;;1.50;;
24425;SDS011;12611;44.446;26.000;2022-08-14T08:20:05;4.60;;;1.88;;
24425;SDS011;12611;44.446;26.000;2022-08-14T08:22:38;3.97;;;1.75;;
24425;SDS011;12611;44.446;26.000;2022-08-14T08:25:14;3.70;;;1.83;;
24425;SDS011;12611;44.446;26.000;2022-08-14T08:27:53;4.50;;;1.80;;
24425;SDS011;12611;44.446;26.000;2022-08-14T08:30:23;4.80;;;2.17;;
24425;SDS011;12611;44.446;26.000;2022-08-14T08:32:54;6.47;;;2.60;;
24425;SDS011;12611;44.446;26.000;2022-08-14T08:35:29;6.13;;;2.65;;
24425;SDS011;12611;44.446;26.000;2022-08-14T08:38:18;5.65;;;2.83;;
24425;SDS011;12611;44.446;26.000;2022-08-14T08:41:09;4.93;;;2.97;;
24425;SDS011;12611;44.446;26.000;2022-08-14T08:43:38;6.15;;;3.20;;
24425;SDS011;12611;44.446;26.000;2022-08-14T08:46:13;4.90;;;2.97;;
24425;SDS011;12611;44.446;26.000;2022-08-14T08:48:47;4.90;;;3.00;;
24425;SDS011;12611;44.446;26.000;2022-08-14T08:51:19;7.32;;;3.70;;
24425;SDS011;12611;44.446;26.000;2022-08-14T08:53:58;5.18;;;3.17;;
24425;SDS011;12611;44.446;26.000;2022-08-14T08:56:32;6.70;;;2.85;;
24425;SDS011;12611;44.446;26.000;2022-08-14T08:59:15;4.75;;;2.97;;
24425;SDS011;12611;44.446;26.000;2022-08-14T09:01:47;6.55;;;3.45;;
24425;SDS011;12611;44.446;26.000;2022-08-14T09:04:23;6.22;;;3.50;;
24425;SDS011;12611;44.446;26.000;2022-08-14T09:06:52;7.32;;;3.72;;
24425;SDS011;12611;44.446;26.000;2022-08-14T09:09:38;7.15;;;3.25;;
24425;SDS011;12611;44.446;26.000;2022-08-14T09:12:20;5.72;;;3.45;;
24425;SDS011;12611;44.446;26.000;2022-08-14T09:14:49;6.50;;;3.45;;
24425;SDS011;12611;44.446;26.000;2022-08-14T09:17:18;6.78;;;3.20;;
24425;SDS011;12611;44.446;26.000;2022-08-14T09:19:52;6.50;;;3.15;;
24425;SDS011;12611;44.446;26.000;2022-08-14T09:22:20;5.55;;;3.17;;
24425;SDS011;12611;44.446;26.000;2022-08-14T09:25:04;5.47;;;3.30;;
24425;SDS011;12611;44.446;26.000;2022-08-14T09:27:33;6.63;;;3.90;;
24425;SDS011;12611;44.446;26.000;2022-08-14T09:30:03;6.05;;;3.88;;
24425;SDS011;12611;44.446;26.000;2022-08-14T09:36:24;6.88;;;4.10;;
24425;SDS011;12611;44.446;26.000;2022-08-14T09:39:07;8.13;;;4.22;;
24425;SDS011;12611;44.446;26.000;2022-08-14T09:41:52;8.40;;;3.83;;
24425;SDS011;12611;44.446;26.000;2022-08-14T09:44:59;6.43;;;3.90;;
24425;SDS011;12611;44.446;26.000;2022-08-14T09:47:41;7.40;;;4.40;;
24425;SDS011;12611;44.446;26.000;2022-08-14T09:50:17;8.85;;;4.25;;
24425;SDS011;12611;44.446;26.000;2022-08-14T09:52:53;6.10;;;3.22;;
24425;SDS011;12611;44.446;26.000;2022-08-14T09:55:25;7.60;;;4.20;;
24425;SDS011;12611;44.446;26.000;2022-08-14T09:58:12;5.07;;;2.75;;
24425;SDS011;12611;44.446;26.000;2022-08-14T10:00:48;4.88;;;3.22;;
24425;SDS011;12611;44.446;26.000;2022-08-14T10:03:26;7.30;;;3.95;;
24425;SDS011;12611;44.446;26.000;2022-08-14T10:06:06;7.40;;;4.05;;
24425;SDS011;12611;44.446;26.000;2022-08-14T10:08:39;7.93;;;4.05;;
24425;SDS011;12611;44.446;26.000;2022-08-14T10:11:18;7.15;;;4.40;;
24425;SDS011;12611;44.446;26.000;2022-08-14T10:13:51;7.93;;;4.35;;
24425;SDS011;12611;44.446;26.000;2022-08-14T10:16:22;7.13;;;4.20;;
24425;SDS011;12611;44.446;26.000;2022-08-14T10:19:00;7.30;;;4.50;;
24425;SDS011;12611;44.446;26.000;2022-08-14T10:21:33;10.98;;;5.32;;
24425;SDS011;12611;44.446;26.000;2022-08-14T10:24:04;8.18;;;4.72;;
24425;SDS011;12611;44.446;26.000;2022-08-14T10:26:36;9.80;;;4.88;;
24425;SDS011;12611;44.446;26.000;2022-08-14T10:29:10;9.55;;;4.78;;
24425;SDS011;12611;44.446;26.000;2022-08-14T10:32:07;7.22;;;4.30;;
24425;SDS011;12611;44.446;26.000;2022-08-14T10:35:02;7.88;;;4.55;;
24425;SDS011;12611;44.446;26.000;2022-08-14T10:37:41;7.25;;;4.47;;
24425;SDS011;12611;44.446;26.000;2022-08-14T10:40:14;7.80;;;4.35;;
24425;SDS011;12611;44.446;26.000;2022-08-14T10:43:16;6.93;;;4.40;;
24425;SDS011;12611;44.446;26.000;2022-08-14T10:45:54;7.78;;;4.80;;
24425;SDS011;12611;44.446;26.000;2022-08-14T10:48:54;9.45;;;4.53;;
24425;SDS011;12611;44.446;26.000;2022-08-14T10:51:25;8.43;;;4.95;;
24425;SDS011;12611;44.446;26.000;2022-08-14T10:54:03;10.93;;;4.85;;
24425;SDS011;12611;44.446;26.000;2022-08-14T10:56:55;9.10;;;5.53;;
24425;SDS011;12611;44.446;26.000;2022-08-14T10:59:24;11.10;;;5.22;;
24425;SDS011;12611;44.446;26.000;2022-08-14T11:01:59;11.50;;;5.15;;
24425;SDS011;12611;44.446;26.000;2022-08-14T11:04:28;11.88;;;5.75;;
24425;SDS011;12611;44.446;26.000;2022-08-14T11:06:58;10.93;;;4.60;;
24425;SDS011;12611;44.446;26.000;2022-08-14T11:09:32;9.27;;;5.20;;
24425;SDS011;12611;44.446;26.000;2022-08-14T11:12:00;7.93;;;5.28;;
24425;SDS011;12611;44.446;26.000;2022-08-14T11:14:50;8.52;;;5.45;;
24425;SDS011;12611;44.446;26.000;2022-08-14T11:17:26;8.60;;;4.55;;
24425;SDS011;12611;44.446;26.000;2022-08-14T11:19:58;7.90;;;4.60;;
24425;SDS011;12611;44.446;26.000;2022-08-14T11:22:29;10.52;;;5.78;;
24425;SDS011;12611;44.446;26.000;2022-08-14T11:25:18;7.53;;;4.72;;
24425;SDS011;12611;44.446;26.000;2022-08-14T11:27:50;8.52;;;4.97;;
24425;SDS011;12611;44.446;26.000;2022-08-14T11:30:20;8.65;;;4.50;;
24425;SDS011;12611;44.446;26.000;2022-08-14T11:33:12;10.38;;;5.35;;
24425;SDS011;12611;44.446;26.000;2022-08-14T11:35:46;11.52;;;4.95;;
24425;SDS011;12611;44.446;26.000;2022-08-14T11:38:15;6.72;;;4.43;;
24425;SDS011;12611;44.446;26.000;2022-08-14T11:40:45;7.03;;;4.57;;
24425;SDS011;12611;44.446;26.000;2022-08-14T11:43:17;9.57;;;5.32;;
24425;SDS011;12611;44.446;26.000;2022-08-14T11:45:55;7.10;;;4.68;;
24425;SDS011;12611;44.446;26.000;2022-08-14T11:48:30;10.15;;;4.75;;
24425;SDS011;12611;44.446;26.000;2022-08-14T11:51:19;7.10;;;4.25;;
24425;SDS011;12611;44.446;26.000;2022-08-14T11:53:58;8.38;;;4.45;;
24425;SDS011;12611;44.446;26.000;2022-08-14T11:56:33;11.07;;;4.30;;
24425;SDS011;12611;44.446;26.000;2022-08-14T11:59:02;6.25;;;4.13;;
24425;SDS011;12611;44.446;26.000;2022-08-14T12:01:36;8.60;;;4.78;;
24425;SDS011;12611;44.446;26.000;2022-08-14T12:04:09;8.38;;;5.13;;
24425;SDS011;12611;44.446;26.000;2022-08-14T12:06:58;12.13;;;6.10;;
24425;SDS011;12611;44.446;26.000;2022-08-14T12:09:31;11.30;;;5.60;;
24425;SDS011;12611;44.446;26.000;2022-08-14T12:12:00;11.80;;;5.60;;
24425;SDS011;12611;44.446;26.000;2022-08-14T12:15:00;9.52;;;5.78;;
24425;SDS011;12611;44.446;26.000;2022-08-14T12:17:30;9.35;;;5.15;;
24425;SDS011;12611;44.446;26.000;2022-08-14T12:20:17;11.50;;;5.03;;
24425;SDS011;12611;44.446;26.000;2022-08-14T12:22:58;8.80;;;4.72;;
24425;SDS011;12611;44.446;26.000;2022-08-14T12:25:31;10.07;;;5.80;;
24425;SDS011;12611;44.446;26.000;2022-08-14T12:28:01;10.25;;;5.65;;
24425;SDS011;12611;44.446;26.000;2022-08-14T12:30:56;10.50;;;6.22;;
24425;SDS011;12611;44.446;26.000;2022-08-14T12:33:27;10.40;;;6.45;;
24425;SDS011;12611;44.446;26.000;2022-08-14T12:36:01;9.43;;;5.43;;
24425;SDS011;12611;44.446;26.000;2022-08-14T12:38:32;10.45;;;5.20;;
24425;SDS011;12611;44.446;26.000;2022-08-14T12:41:09;8.57;;;5.60;;
24425;SDS011;12611;44.446;26.000;2022-08-14T12:43:49;14.93;;;6.30;;
24425;SDS011;12611;44.446;26.000;2022-08-14T12:46:26;9.40;;;5.95;;
24425;SDS011;12611;44.446;26.000;2022-08-14T12:48:56;10.68;;;5.80;;
24425;SDS011;12611;44.446;26.000;2022-08-14T12:51:33;11.93;;;5.85;;
24425;SDS011;12611;44.446;26.000;2022-08-14T12:54:11;10.18;;;5.32;;
24425;SDS011;12611;44.446;26.000;2022-08-14T12:57:01;14.35;;;6.50;;
24425;SDS011;12611;44.446;26.000;2022-08-14T12:59:31;11.15;;;6.07;;
24425;SDS011;12611;44.446;26.000;2022-08-14T13:02:16;10.45;;;6.43;;
24425;SDS011;12611;44.446;26.000;2022-08-14T13:04:52;13.75;;;6.35;;
24425;SDS011;12611;44.446;26.000;2022-08-14T13:07:23;9.75;;;6.22;;
24425;SDS011;12611;44.446;26.000;2022-08-14T13:09:58;12.07;;;7.35;;
24425;SDS011;12611;44.446;26.000;2022-08-14T13:12:48;11.20;;;6.50;;
24425;SDS011;12611;44.446;26.000;2022-08-14T13:15:38;12.55;;;7.10;;
24425;SDS011;12611;44.446;26.000;2022-08-14T13:18:09;9.38;;;7.10;;
24425;SDS011;12611;44.446;26.000;2022-08-14T13:20:42;11.63;;;5.95;;
24425;SDS011;12611;44.446;26.000;2022-08-14T13:23:19;10.85;;;6.15;;
24425;SDS011;12611;44.446;26.000;2022-08-14T13:25:58;11.32;;;5.43;;
24425;SDS011;12611;44.446;26.000;2022-08-14T13:28:28;8.38;;;5.25;;
24425;SDS011;12611;44.446;26.000;2022-08-14T13:31:00;11.25;;;5.55;;
24425;SDS011;12611;44.446;26.000;2022-08-14T13:33:36;6.90;;;5.13;;
24425;SDS011;12611;44.446;26.000;2022-08-14T13:36:07;9.18;;;5.78;;
24425;SDS011;12611;44.446;26.000;2022-08-14T13:38:51;9.02;;;5.30;;
24425;SDS011;12611;44.446;26.000;2022-08-14T13:41:21;10.27;;;6.32;;
24425;SDS011;12611;44.446;26.000;2022-08-14T13:44:02;9.68;;;5.97;;
24425;SDS011;12611;44.446;26.000;2022-08-14T13:46:39;8.68;;;5.65;;
24425;SDS011;12611;44.446;26.000;2022-08-14T13:49:11;9.80;;;6.38;;
24425;SDS011;12611;44.446;26.000;2022-08-14T13:51:41;10.38;;;5.97;;
24425;SDS011;12611;44.446;26.000;2022-08-14T13:54:19;11.32;;;5.93;;
24425;SDS011;12611;44.446;26.000;2022-08-14T13:56:51;10.40;;;5.82;;
24425;SDS011;12611;44.446;26.000;2022-08-14T13:59:21;11.77;;;5.25;;
24425;SDS011;12611;44.446;26.000;2022-08-14T14:02:04;13.32;;;6.00;;
24425;SDS011;12611;44.446;26.000;2022-08-14T14:04:37;9.05;;;5.43;;
24425;SDS011;12611;44.446;26.000;2022-08-14T14:07:08;10.63;;;5.82;;
24425;SDS011;12611;44.446;26.000;2022-08-14T14:09:43;10.48;;;6.10;;
24425;SDS011;12611;44.446;26.000;2022-08-14T14:12:18;11.30;;;5.35;;
24425;SDS011;12611;44.446;26.000;2022-08-14T14:15:06;8.38;;;4.85;;
24425;SDS011;12611;44.446;26.000;2022-08-14T14:17:37;7.05;;;4.82;;
24425;SDS011;12611;44.446;26.000;2022-08-14T14:20:10;10.57;;;5.88;;
24425;SDS011;12611;44.446;26.000;2022-08-14T14:23:01;8.77;;;5.28;;
24425;SDS011;12611;44.446;26.000;2022-08-14T14:25:40;8.23;;;5.13;;
24425;SDS011;12611;44.446;26.000;2022-08-14T14:28:23;10.02;;;5.72;;
24425;SDS011;12611;44.446;26.000;2022-08-14T14:30:58;8.32;;;4.40;;
24425;SDS011;12611;44.446;26.000;2022-08-14T14:33:33;11.88;;;5.68;;
24425;SDS011;12611;44.446;26.000;2022-08-14T14:36:18;8.20;;;4.43;;
24425;SDS011;12611;44.446;26.000;2022-08-14T14:38:50;9.00;;;5.03;;
24425;SDS011;12611;44.446;26.000;2022-08-14T14:41:21;7.07;;;4.50;;
24425;SDS011;12611;44.446;26.000;2022-08-14T14:44:04;10.93;;;5.28;;
24425;SDS011;12611;44.446;26.000;2022-08-14T14:46:35;6.55;;;4.35;;
24425;SDS011;12611;44.446;26.000;2022-08-14T14:49:08;11.48;;;4.70;;
24425;SDS011;12611;44.446;26.000;2022-08-14T14:51:40;7.25;;;4.47;;
24425;SDS011;12611;44.446;26.000;2022-08-14T14:54:16;7.47;;;4.20;;
24425;SDS011;12611;44.446;26.000;2022-08-14T14:57:04;8.40;;;4.60;;
24425;SDS011;12611;44.446;26.000;2022-08-14T14:59:37;7.63;;;4.80;;
24425;SDS011;12611;44.446;26.000;2022-08-14T15:02:07;11.23;;;4.53;;
24425;SDS011;12611;44.446;26.000;2022-08-14T15:04:38;10.95;;;4.82;;
24425;SDS011;12611;44.446;26.000;2022-08-14T15:07:09;8.63;;;4.30;;
24425;SDS011;12611;44.446;26.000;2022-08-14T15:09:41;7.03;;;4.50;;
24425;SDS011;12611;44.446;26.000;2022-08-14T15:12:15;7.78;;;3.90;;
24425;SDS011;12611;44.446;26.000;2022-08-14T15:15:03;7.72;;;4.15;;
24425;SDS011;12611;44.446;26.000;2022-08-14T15:17:34;7.65;;;4.15;;
24425;SDS011;12611;44.446;26.000;2022-08-14T15:20:09;8.30;;;4.53;;
24425;SDS011;12611;44.446;26.000;2022-08-14T15:22:55;8.88;;;4.72;;
24425;SDS011;12611;44.446;26.000;2022-08-14T15:25:37;10.10;;;4.30;;